sensor_id;sensor_type;location;lat;lon;timestamp;pressure;altitude;pressure_sealevel;temperature;humidity
70217;BME280;65567;55.684;37.570;2023-11-22T00:01:38;99115.94;;;-4.33;53.22
70217;BME280;65567;55.684;37.570;2023-11-22T00:04:04;99121.97;;;-4.23;52.27
70217;BME280;65567;55.684;37.570;2023-11-22T00:06:30;99117.69;;;-4.27;52.25
70217;BME280;65567;55.684;37.570;2023-11-22T00:08:58;99123.59;;;-4.35;52.26
70217;BME280;65567;55.684;37.570;2023-11-22T00:11:24;99125.31;;;-4.34;52.45
70217;BME280;65567;55.684;37.570;2023-11-22T00:13:49;99116.84;;;-4.26;51.96
70217;BME280;65567;55.684;37.570;2023-11-22T00:16:20;99125.31;;;-4.31;52.17
70217;BME280;65567;55.684;37.570;2023-11-22T00:18:49;99116.81;;;-4.28;52.19
70217;BME280;65567;55.684;37.570;2023-11-22T00:21:15;99122.81;;;-4.27;51.99
70217;BME280;65567;55.684;37.570;2023-11-22T00:23:43;99114.25;;;-4.31;52.67
70217;BME280;65567;55.684;37.570;2023-11-22T00:26:09;99118.59;;;-4.19;52.36
70217;BME280;65567;55.684;37.570;2023-11-22T00:28:36;99110.91;;;-4.19;53.00
70217;BME280;65567;55.684;37.570;2023-11-22T00:31:02;99110.09;;;-4.15;54.02
70217;BME280;65567;55.684;37.570;2023-11-22T00:33:31;99097.34;;;-4.09;52.05
70217;BME280;65567;55.684;37.570;2023-11-22T00:35:57;99105.94;;;-3.96;52.21
70217;BME280;65567;55.684;37.570;2023-11-22T00:38:24;99111.94;;;-3.94;52.08
70217;BME280;65567;55.684;37.570;2023-11-22T00:40:49;99105.97;;;-3.94;52.50
70217;BME280;65567;55.684;37.570;2023-11-22T00:43:22;99106.88;;;-3.80;51.83
70217;BME280;65567;55.684;37.570;2023-11-22T00:45:47;99103.44;;;-3.88;51.36
70217;BME280;65567;55.684;37.570;2023-11-22T00:48:13;99107.72;;;-3.87;52.47
70217;BME280;65567;55.684;37.570;2023-11-22T00:50:39;99118.84;;;-3.79;53.08
70217;BME280;65567;55.684;37.570;2023-11-22T00:53:04;99108.63;;;-3.73;52.74
70217;BME280;65567;55.684;37.570;2023-11-22T00:55:33;99100.03;;;-3.81;52.21
70217;BME280;65567;55.684;37.570;2023-11-22T00:57:59;99104.31;;;-3.83;53.05
70217;BME280;65567;55.684;37.570;2023-11-22T01:00:30;99103.47;;;-3.82;51.55
70217;BME280;65567;55.684;37.570;2023-11-22T01:02:57;99109.44;;;-3.80;51.80
70217;BME280;65567;55.684;37.570;2023-11-22T01:05:29;99105.16;;;-3.81;52.80
70217;BME280;65567;55.684;37.570;2023-11-22T01:07:57;99081.22;;;-3.95;53.21
70217;BME280;65567;55.684;37.570;2023-11-22T01:10:23;99101.84;;;-3.66;51.85
70217;BME280;65567;55.684;37.570;2023-11-22T01:12:49;99100.09;;;-3.75;52.45
70217;BME280;65567;55.684;37.570;2023-11-22T01:15:15;99093.25;;;-3.76;51.55
70217;BME280;65567;55.684;37.570;2023-11-22T01:17:43;99077.81;;;-3.93;51.12
70217;BME280;65567;55.684;37.570;2023-11-22T01:20:11;99095.81;;;-3.79;51.91
70217;BME280;65567;55.684;37.570;2023-11-22T01:22:40;99105.19;;;-3.78;50.64
70217;BME280;65567;55.684;37.570;2023-11-22T01:25:06;99103.44;;;-3.85;51.97
70217;BME280;65567;55.684;37.570;2023-11-22T01:27:32;99100.00;;;-3.93;52.78
70217;BME280;65567;55.684;37.570;2023-11-22T01:30:00;99098.31;;;-3.88;53.39
70217;BME280;65567;55.684;37.570;2023-11-22T01:32:29;99091.47;;;-3.89;53.65
70217;BME280;65567;55.684;37.570;2023-11-22T01:34:55;99088.97;;;-3.85;53.76
70217;BME280;65567;55.684;37.570;2023-11-22T01:37:23;99089.00;;;-3.74;53.15
70217;BME280;65567;55.684;37.570;2023-11-22T01:39:49;99079.66;;;-3.69;51.27
70217;BME280;65567;55.684;37.570;2023-11-22T01:42:14;99094.13;;;-3.72;51.31
70217;BME280;65567;55.684;37.570;2023-11-22T01:44:40;99096.69;;;-3.75;51.37
70217;BME280;65567;55.684;37.570;2023-11-22T01:47:09;99090.69;;;-3.82;50.98
70217;BME280;65567;55.684;37.570;2023-11-22T01:49:35;99077.81;;;-3.94;53.09
70217;BME280;65567;55.684;37.570;2023-11-22T01:52:03;99098.31;;;-3.88;52.33
70217;BME280;65567;55.684;37.570;2023-11-22T01:54:30;99100.03;;;-3.84;51.67
70217;BME280;65567;55.684;37.570;2023-11-22T01:56:57;99105.22;;;-3.75;51.05
70217;BME280;65567;55.684;37.570;2023-11-22T01:59:23;99100.94;;;-3.77;51.05
70217;BME280;65567;55.684;37.570;2023-11-22T02:01:53;99101.81;;;-3.77;52.04
70217;BME280;65567;55.684;37.570;2023-11-22T02:04:20;99094.97;;;-3.78;50.77
70217;BME280;65567;55.684;37.570;2023-11-22T02:06:47;99095.81;;;-3.82;51.30
70217;BME280;65567;55.684;37.570;2023-11-22T02:09:15;99098.38;;;-3.82;51.63
70217;BME280;65567;55.684;37.570;2023-11-22T02:11:41;99101.75;;;-3.83;50.92
70217;BME280;65567;55.684;37.570;2023-11-22T02:14:15;99095.75;;;-3.90;51.16
70217;BME280;65567;55.684;37.570;2023-11-22T02:16:41;99094.00;;;-4.00;52.75
70217;BME280;65567;55.684;37.570;2023-11-22T02:19:14;99105.16;;;-3.84;52.47
70217;BME280;65567;55.684;37.570;2023-11-22T02:21:41;99094.94;;;-3.84;52.13
70217;BME280;65567;55.684;37.570;2023-11-22T02:24:07;99102.59;;;-3.84;51.26
70217;BME280;65567;55.684;37.570;2023-11-22T02:26:33;99080.34;;;-4.01;51.17
70217;BME280;65567;55.684;37.570;2023-11-22T02:28:59;99105.97;;;-3.93;53.44
70217;BME280;65567;55.684;37.570;2023-11-22T02:31:27;99101.63;;;-4.03;54.45
70217;BME280;65567;55.684;37.570;2023-11-22T02:33:54;99096.59;;;-3.92;53.22
70217;BME280;65567;55.684;37.570;2023-11-22T02:36:23;99073.53;;;-3.97;52.14
70217;BME280;65567;55.684;37.570;2023-11-22T02:38:50;99106.03;;;-3.80;53.36
70217;BME280;65567;55.684;37.570;2023-11-22T02:41:16;99110.25;;;-3.90;54.80
70217;BME280;65567;55.684;37.570;2023-11-22T02:43:42;99108.66;;;-3.70;52.42
70217;BME280;65567;55.684;37.570;2023-11-22T02:46:09;99101.88;;;-3.55;51.71
70217;BME280;65567;55.684;37.570;2023-11-22T02:48:35;99105.25;;;-3.69;53.05
70217;BME280;65567;55.684;37.570;2023-11-22T02:51:01;99112.03;;;-3.71;52.06
70217;BME280;65567;55.684;37.570;2023-11-22T02:53:29;99079.53;;;-3.90;51.80
70217;BME280;65567;55.684;37.570;2023-11-22T02:55:59;99091.47;;;-3.92;51.96
70217;BME280;65567;55.684;37.570;2023-11-22T02:58:28;99110.16;;;-4.06;54.75
70217;BME280;65567;55.684;37.570;2023-11-22T03:00:54;99111.03;;;-4.05;55.00
70217;BME280;65567;55.684;37.570;2023-11-22T03:03:23;99110.25;;;-3.90;52.75
70217;BME280;65567;55.684;37.570;2023-11-22T03:05:49;99117.06;;;-3.89;52.10
70217;BME280;65567;55.684;37.570;2023-11-22T03:08:19;99121.34;;;-3.87;52.03
70217;BME280;65567;55.684;37.570;2023-11-22T03:10:45;99116.22;;;-3.88;51.29
70217;BME280;65567;55.684;37.570;2023-11-22T03:13:11;99119.63;;;-3.94;52.25
70217;BME280;65567;55.684;37.570;2023-11-22T03:15:38;99110.25;;;-3.90;51.69
70217;BME280;65567;55.684;37.570;2023-11-22T03:18:04;99110.22;;;-3.96;53.88
70217;BME280;65567;55.684;37.570;2023-11-22T03:20:32;99115.44;;;-3.78;51.74
70217;BME280;65567;55.684;37.570;2023-11-22T03:22:59;99111.16;;;-3.82;51.74
70217;BME280;65567;55.684;37.570;2023-11-22T03:25:28;99114.56;;;-3.83;51.63
70217;BME280;65567;55.684;37.570;2023-11-22T03:27:54;99100.84;;;-3.96;51.84
70217;BME280;65567;55.684;37.570;2023-11-22T03:30:20;99113.72;;;-3.84;51.97
70217;BME280;65567;55.684;37.570;2023-11-22T03:32:46;99117.97;;;-3.83;50.97
70217;BME280;65567;55.684;37.570;2023-11-22T03:35:12;99117.03;;;-3.99;53.26
70217;BME280;65567;55.684;37.570;2023-11-22T03:37:41;99120.47;;;-3.93;52.73
70217;BME280;65567;55.684;37.570;2023-11-22T03:40:14;99116.22;;;-3.87;52.91
70217;BME280;65567;55.684;37.570;2023-11-22T03:42:41;99114.50;;;-3.94;53.60
70217;BME280;65567;55.684;37.570;2023-11-22T03:45:07;99112.03;;;-3.74;52.43
70217;BME280;65567;55.684;37.570;2023-11-22T03:47:33;99117.16;;;-3.71;51.49
70217;BME280;65567;55.684;37.570;2023-11-22T03:49:59;99120.59;;;-3.72;51.36
70217;BME280;65567;55.684;37.570;2023-11-22T03:52:25;99108.59;;;-3.76;51.58
70217;BME280;65567;55.684;37.570;2023-11-22T03:54:54;99113.75;;;-3.73;51.04
70217;BME280;65567;55.684;37.570;2023-11-22T03:57:22;99129.91;;;-3.78;50.51
70217;BME280;65567;55.684;37.570;2023-11-22T03:59:51;99133.25;;;-3.96;51.24
70217;BME280;65567;55.684;37.570;2023-11-22T04:02:20;99125.47;;;-4.09;53.81
70217;BME280;65567;55.684;37.570;2023-11-22T04:04:46;99128.09;;;-4.03;53.36
70217;BME280;65567;55.684;37.570;2023-11-22T04:07:12;99118.75;;;-3.94;52.83
70217;BME280;65567;55.684;37.570;2023-11-22T04:09:38;99138.38;;;-3.95;53.89
70217;BME280;65567;55.684;37.570;2023-11-22T04:12:04;99130.78;;;-3.78;52.15
70217;BME280;65567;55.684;37.570;2023-11-22T04:14:30;99124.78;;;-3.80;51.69
70217;BME280;65567;55.684;37.570;2023-11-22T04:16:56;99124.84;;;-3.74;52.01
70217;BME280;65567;55.684;37.570;2023-11-22T04:19:22;99135.91;;;-3.73;52.42
70217;BME280;65567;55.684;37.570;2023-11-22T04:21:48;99129.13;;;-3.70;52.16
70217;BME280;65567;55.684;37.570;2023-11-22T04:24:17;99131.69;;;-3.71;53.33
70217;BME280;65567;55.684;37.570;2023-11-22T04:26:44;99129.16;;;-3.63;51.89
70217;BME280;65567;55.684;37.570;2023-11-22T04:29:14;99125.72;;;-3.66;51.87
70217;BME280;65567;55.684;37.570;2023-11-22T04:31:41;99118.88;;;-3.68;52.78
70217;BME280;65567;55.684;37.570;2023-11-22T04:34:07;99130.00;;;-3.65;53.80
70217;BME280;65567;55.684;37.570;2023-11-22T04:36:33;99134.34;;;-3.48;51.94
70217;BME280;65567;55.684;37.570;2023-11-22T04:38:59;99134.31;;;-3.51;51.02
70217;BME280;65567;55.684;37.570;2023-11-22T04:41:25;99132.59;;;-3.60;52.53
70217;BME280;65567;55.684;37.570;2023-11-22T04:43:51;99130.88;;;-3.64;54.10
70217;BME280;65567;55.684;37.570;2023-11-22T04:46:17;99134.28;;;-3.67;54.23
70217;BME280;65567;55.684;37.570;2023-11-22T04:48:43;99136.00;;;-3.59;53.90
70217;BME280;65567;55.684;37.570;2023-11-22T04:51:10;99141.19;;;-3.45;53.21
70217;BME280;65567;55.684;37.570;2023-11-22T04:53:36;99128.31;;;-3.62;53.84
70217;BME280;65567;55.684;37.570;2023-11-22T04:56:02;99132.56;;;-3.66;51.25
70217;BME280;65567;55.684;37.570;2023-11-22T04:58:32;99131.72;;;-3.62;51.69
70217;BME280;65567;55.684;37.570;2023-11-22T05:01:00;99122.28;;;-3.77;53.80
70217;BME280;65567;55.684;37.570;2023-11-22T05:03:30;99136.84;;;-3.62;53.11
70217;BME280;65567;55.684;37.570;2023-11-22T05:05:56;99143.75;;;-3.47;51.42
70217;BME280;65567;55.684;37.570;2023-11-22T05:08:22;99137.69;;;-3.65;53.25
70217;BME280;65567;55.684;37.570;2023-11-22T05:10:48;99143.69;;;-3.59;53.74
70217;BME280;65567;55.684;37.570;2023-11-22T05:13:13;99140.28;;;-3.55;51.53
70217;BME280;65567;55.684;37.570;2023-11-22T05:15:45;99152.19;;;-3.63;51.63
70217;BME280;65567;55.684;37.570;2023-11-22T05:18:12;99154.72;;;-3.73;52.60
70217;BME280;65567;55.684;37.570;2023-11-22T05:20:38;99160.75;;;-3.57;52.05
70217;BME280;65567;55.684;37.570;2023-11-22T05:23:03;99157.31;;;-3.60;50.72
70217;BME280;65567;55.684;37.570;2023-11-22T05:25:30;99162.34;;;-3.82;50.77
70217;BME280;65567;55.684;37.570;2023-11-22T05:27:56;99157.19;;;-3.87;50.14
70217;BME280;65567;55.684;37.570;2023-11-22T05:30:21;99163.13;;;-3.92;51.09
70217;BME280;65567;55.684;37.570;2023-11-22T05:32:49;99155.41;;;-3.97;50.49
70217;BME280;65567;55.684;37.570;2023-11-22T05:35:15;99146.00;;;-4.03;50.44
70217;BME280;65567;55.684;37.570;2023-11-22T05:37:40;99157.06;;;-4.04;51.21
70217;BME280;65567;55.684;37.570;2023-11-22T05:40:07;99165.59;;;-4.03;50.91
70217;BME280;65567;55.684;37.570;2023-11-22T05:42:35;99164.75;;;-4.04;51.45
70217;BME280;65567;55.684;37.570;2023-11-22T05:45:01;99166.56;;;-3.87;51.10
70217;BME280;65567;55.684;37.570;2023-11-22T05:47:29;99176.81;;;-3.84;49.97
70217;BME280;65567;55.684;37.570;2023-11-22T05:49:54;99165.63;;;-4.00;49.96
70217;BME280;65567;55.684;37.570;2023-11-22T05:52:20;99164.59;;;-4.24;50.12
70217;BME280;65567;55.684;37.570;2023-11-22T05:54:48;99161.94;;;-4.35;50.37
70217;BME280;65567;55.684;37.570;2023-11-22T05:57:14;99171.31;;;-4.35;50.37
70217;BME280;65567;55.684;37.570;2023-11-22T05:59:40;99166.16;;;-4.43;50.62
70217;BME280;65567;55.684;37.570;2023-11-22T06:02:06;99160.97;;;-4.52;50.83
70217;BME280;65567;55.684;37.570;2023-11-22T06:04:32;99179.81;;;-4.39;50.88
70217;BME280;65567;55.684;37.570;2023-11-22T06:06:59;99181.56;;;-4.32;50.92
70217;BME280;65567;55.684;37.570;2023-11-22T06:09:25;99168.84;;;-4.26;49.90
70217;BME280;65567;55.684;37.570;2023-11-22T06:11:56;99182.50;;;-4.24;49.89
70217;BME280;65567;55.684;37.570;2023-11-22T06:14:22;99174.84;;;-4.22;49.91
70217;BME280;65567;55.684;37.570;2023-11-22T06:16:48;99170.56;;;-4.23;49.96
70217;BME280;65567;55.684;37.570;2023-11-22T06:19:16;99181.69;;;-4.18;49.68
70217;BME280;65567;55.684;37.570;2023-11-22T06:21:44;99167.09;;;-4.30;50.39
70217;BME280;65567;55.684;37.570;2023-11-22T06:24:13;99157.84;;;-4.17;49.79
70217;BME280;65567;55.684;37.570;2023-11-22T06:26:44;99171.53;;;-4.07;50.79
70217;BME280;65567;55.684;37.570;2023-11-22T06:29:13;99168.91;;;-4.17;50.97
70217;BME280;65567;55.684;37.570;2023-11-22T06:31:40;99179.31;;;-3.96;49.69
70217;BME280;65567;55.684;37.570;2023-11-22T06:34:06;99175.03;;;-3.93;49.14
70217;BME280;65567;55.684;37.570;2023-11-22T06:36:31;99174.16;;;-3.98;49.82
70217;BME280;65567;55.684;37.570;2023-11-22T06:38:58;99175.03;;;-3.96;49.78
70217;BME280;65567;55.684;37.570;2023-11-22T06:41:24;99181.09;;;-3.85;48.85
70217;BME280;65567;55.684;37.570;2023-11-22T06:43:50;99177.59;;;-3.93;48.78
70217;BME280;65567;55.684;37.570;2023-11-22T06:46:15;99181.75;;;-4.09;49.18
70217;BME280;65567;55.684;37.570;2023-11-22T06:48:42;99187.72;;;-4.11;49.05
70217;BME280;65567;55.684;37.570;2023-11-22T06:51:14;99190.19;;;-4.19;49.35
70217;BME280;65567;55.684;37.570;2023-11-22T06:53:40;99043.75;;;-5.09;49.43
70217;BME280;65567;55.684;37.570;2023-11-22T06:56:06;99195.31;;;-4.19;49.13
70217;BME280;65567;55.684;37.570;2023-11-22T06:58:32;99191.91;;;-4.21;49.45
70217;BME280;65567;55.684;37.570;2023-11-22T07:00:58;99175.47;;;-4.48;49.80
70217;BME280;65567;55.684;37.570;2023-11-22T07:03:24;99191.00;;;-4.26;49.55
70217;BME280;65567;55.684;37.570;2023-11-22T07:05:50;99190.13;;;-4.32;49.59
70217;BME280;65567;55.684;37.570;2023-11-22T07:08:15;99208.16;;;-4.15;49.89
70217;BME280;65567;55.684;37.570;2023-11-22T07:10:46;99207.41;;;-4.03;49.21
70217;BME280;65567;55.684;37.570;2023-11-22T07:13:13;99206.38;;;-4.20;49.64
70217;BME280;65567;55.684;37.570;2023-11-22T07:15:39;99210.72;;;-4.15;49.29
70217;BME280;65567;55.684;37.570;2023-11-22T07:18:09;99215.78;;;-4.19;49.29
70217;BME280;65567;55.684;37.570;2023-11-22T07:20:35;99217.50;;;-4.20;49.25
70217;BME280;65567;55.684;37.570;2023-11-22T07:23:01;99218.28;;;-4.25;49.16
70217;BME280;65567;55.684;37.570;2023-11-22T07:25:27;99219.16;;;-4.23;49.15
70217;BME280;65567;55.684;37.570;2023-11-22T07:27:54;99226.81;;;-4.26;48.43
70217;BME280;65567;55.684;37.570;2023-11-22T07:30:20;99220.81;;;-4.28;48.14
70217;BME280;65567;55.684;37.570;2023-11-22T07:32:51;99208.81;;;-4.36;48.11
70217;BME280;65567;55.684;37.570;2023-11-22T07:35:19;99222.31;;;-4.49;48.49
70217;BME280;65567;55.684;37.570;2023-11-22T07:37:46;99213.84;;;-4.45;48.39
70217;BME280;65567;55.684;37.570;2023-11-22T07:40:14;99219.03;;;-4.36;48.47
70217;BME280;65567;55.684;37.570;2023-11-22T07:42:40;99178.03;;;-4.48;48.18
70217;BME280;65567;55.684;37.570;2023-11-22T07:45:07;99209.91;;;-4.09;48.03
70217;BME280;65567;55.684;37.570;2023-11-22T07:47:35;99218.47;;;-4.05;48.07
70217;BME280;65567;55.684;37.570;2023-11-22T07:50:01;99222.03;;;-3.85;48.39
70217;BME280;65567;55.684;37.570;2023-11-22T07:52:31;99218.00;;;-3.44;47.99
70217;BME280;65567;55.684;37.570;2023-11-22T07:54:59;99208.81;;;-3.03;47.35
70217;BME280;65567;55.684;37.570;2023-11-22T07:57:25;99207.19;;;-2.76;46.80
70217;BME280;65567;55.684;37.570;2023-11-22T07:59:51;99208.09;;;-2.43;46.33
70217;BME280;65567;55.684;37.570;2023-11-22T08:02:21;99216.69;;;-2.18;45.68
70217;BME280;65567;55.684;37.570;2023-11-22T08:04:47;99215.84;;;-2.03;44.77
70217;BME280;65567;55.684;37.570;2023-11-22T08:07:16;99191.84;;;-1.84;44.12
70217;BME280;65567;55.684;37.570;2023-11-22T08:09:42;99212.38;;;-1.62;43.28
70217;BME280;65567;55.684;37.570;2023-11-22T08:12:08;99218.31;;;-1.37;43.62
70217;BME280;65567;55.684;37.570;2023-11-22T08:14:39;99208.00;;;-1.18;42.55
70217;BME280;65567;55.684;37.570;2023-11-22T08:17:06;99198.59;;;-1.28;41.80
70217;BME280;65567;55.684;37.570;2023-11-22T08:19:32;99210.63;;;-1.40;41.64
70217;BME280;65567;55.684;37.570;2023-11-22T08:21:58;99177.28;;;-1.57;42.27
70217;BME280;65567;55.684;37.570;2023-11-22T08:24:26;99205.47;;;-1.35;41.98
70217;BME280;65567;55.684;37.570;2023-11-22T08:26:52;99156.69;;;-1.46;41.84
70217;BME280;65567;55.684;37.570;2023-11-22T08:29:18;99199.38;;;-1.08;41.24
70217;BME280;65567;55.684;37.570;2023-11-22T08:31:44;99183.00;;;-0.85;41.45
70217;BME280;65567;55.684;37.570;2023-11-22T08:34:17;99196.50;;;-0.47;40.76
70217;BME280;65567;55.684;37.570;2023-11-22T08:36:43;99161.13;;;-0.22;40.57
70217;BME280;65567;55.684;37.570;2023-11-22T08:39:09;99194.88;;;0.45;39.35
70217;BME280;65567;55.684;37.570;2023-11-22T08:41:38;99185.59;;;1.05;38.12
70217;BME280;65567;55.684;37.570;2023-11-22T08:44:04;99144.31;;;1.05;38.33
70217;BME280;65567;55.684;37.570;2023-11-22T08:46:40;99182.94;;;1.70;36.74
70217;BME280;65567;55.684;37.570;2023-11-22T08:49:06;99196.03;;;2.14;36.52
70217;BME280;65567;55.684;37.570;2023-11-22T08:51:33;99186.84;;;2.46;36.00
70217;BME280;65567;55.684;37.570;2023-11-22T08:54:01;99176.66;;;2.84;35.25
70217;BME280;65567;55.684;37.570;2023-11-22T08:56:27;99177.59;;;3.22;35.01
70217;BME280;65567;55.684;37.570;2023-11-22T08:58:53;99183.34;;;3.35;34.25
70217;BME280;65567;55.684;37.570;2023-11-22T09:01:20;99179.31;;;3.60;33.98
70217;BME280;65567;55.684;37.570;2023-11-22T09:03:45;99171.28;;;4.07;34.08
70217;BME280;65567;55.684;37.570;2023-11-22T09:06:11;99148.56;;;4.17;32.39
70217;BME280;65567;55.684;37.570;2023-11-22T09:08:38;99154.75;;;4.11;33.16
70217;BME280;65567;55.684;37.570;2023-11-22T09:11:04;99168.16;;;4.27;31.99
70217;BME280;65567;55.684;37.570;2023-11-22T09:13:32;99167.41;;;3.89;32.33
70217;BME280;65567;55.684;37.570;2023-11-22T09:15:58;99174.06;;;3.63;32.48
70217;BME280;65567;55.684;37.570;2023-11-22T09:18:29;99179.97;;;3.69;32.83
70217;BME280;65567;55.684;37.570;2023-11-22T09:20:56;99183.34;;;3.72;32.33
70217;BME280;65567;55.684;37.570;2023-11-22T09:23:21;99172.47;;;3.19;32.72
70217;BME280;65567;55.684;37.570;2023-11-22T09:25:47;99183.31;;;2.95;33.37
70217;BME280;65567;55.684;37.570;2023-11-22T09:28:13;99176.66;;;2.82;33.17
70217;BME280;65567;55.684;37.570;2023-11-22T09:30:43;99195.56;;;2.86;33.40
70217;BME280;65567;55.684;37.570;2023-11-22T09:33:15;99182.28;;;3.03;33.53
70217;BME280;65567;55.684;37.570;2023-11-22T09:35:41;99183.13;;;3.05;33.10
70217;BME280;65567;55.684;37.570;2023-11-22T09:38:12;99191.31;;;2.83;33.36
70217;BME280;65567;55.684;37.570;2023-11-22T09:40:42;99181.97;;;2.76;33.52
70217;BME280;65567;55.684;37.570;2023-11-22T09:43:09;99180.31;;;2.72;33.71
70217;BME280;65567;55.684;37.570;2023-11-22T09:45:35;99177.31;;;2.48;33.08
70217;BME280;65567;55.684;37.570;2023-11-22T09:48:15;99176.28;;;2.10;33.86
70217;BME280;65567;55.684;37.570;2023-11-22T09:56:09;99191.81;;;1.52;34.86
70217;BME280;65567;55.684;37.570;2023-11-22T09:58:47;99187.84;;;1.29;35.39
70217;BME280;65567;55.684;37.570;2023-11-22T10:01:17;99177.56;;;1.26;35.42
70217;BME280;65567;55.684;37.570;2023-11-22T10:03:43;99190.66;;;1.12;35.52
70217;BME280;65567;55.684;37.570;2023-11-22T10:06:09;99185.72;;;0.92;35.81
70217;BME280;65567;55.684;37.570;2023-11-22T10:08:44;99168.94;;;0.60;35.76
70217;BME280;65567;55.684;37.570;2023-11-22T10:11:18;99169.22;;;0.32;36.22
70217;BME280;65567;55.684;37.570;2023-11-22T10:14:07;99179.75;;;0.11;37.33
70217;BME280;65567;55.684;37.570;2023-11-22T10:16:34;99180.47;;;0.25;37.15
70217;BME280;65567;55.684;37.570;2023-11-22T10:19:03;99153.19;;;0.03;37.10
70217;BME280;65567;55.684;37.570;2023-11-22T10:21:31;99179.00;;;-0.04;37.62
70217;BME280;65567;55.684;37.570;2023-11-22T10:24:00;99184.16;;;-0.02;37.39
70217;BME280;65567;55.684;37.570;2023-11-22T10:26:33;99186.81;;;-0.13;37.78
70217;BME280;65567;55.684;37.570;2023-11-22T10:29:01;99181.84;;;-0.38;38.04
70217;BME280;65567;55.684;37.570;2023-11-22T10:31:27;99181.91;;;-0.47;38.66
70217;BME280;65567;55.684;37.570;2023-11-22T10:34:00;99177.56;;;-0.37;38.44
70217;BME280;65567;55.684;37.570;2023-11-22T10:36:26;99182.69;;;-0.36;38.55
70217;BME280;65567;55.684;37.570;2023-11-22T10:38:53;99181.72;;;-0.22;38.52
70217;BME280;65567;55.684;37.570;2023-11-22T10:41:20;99177.59;;;-0.45;38.55
70217;BME280;65567;55.684;37.570;2023-11-22T10:43:47;99187.31;;;-0.90;39.35
70217;BME280;65567;55.684;37.570;2023-11-22T10:46:15;99184.03;;;-1.29;40.01
70217;BME280;65567;55.684;37.570;2023-11-22T10:48:45;99182.34;;;-1.37;40.89
70217;BME280;65567;55.684;37.570;2023-11-22T10:51:13;99183.16;;;-1.21;40.78
70217;BME280;65567;55.684;37.570;2023-11-22T10:53:44;99175.53;;;-1.44;41.18
70217;BME280;65567;55.684;37.570;2023-11-22T10:56:15;99178.91;;;-1.36;41.16
70217;BME280;65567;55.684;37.570;2023-11-22T10:58:56;99180.66;;;-1.38;41.42
70217;BME280;65567;55.684;37.570;2023-11-22T11:01:28;99180.63;;;-1.36;41.19
70217;BME280;65567;55.684;37.570;2023-11-22T11:04:02;99182.34;;;-1.44;41.75
70217;BME280;65567;55.684;37.570;2023-11-22T11:06:36;99180.72;;;-1.66;42.08
70217;BME280;65567;55.684;37.570;2023-11-22T11:09:06;99177.28;;;-1.61;42.14
70217;BME280;65567;55.684;37.570;2023-11-22T11:11:36;99179.00;;;-1.63;41.93
70217;BME280;65567;55.684;37.570;2023-11-22T11:14:03;99182.47;;;-1.77;42.40
70217;BME280;65567;55.684;37.570;2023-11-22T11:16:38;99176.47;;;-1.87;43.02
70217;BME280;65567;55.684;37.570;2023-11-22T11:19:15;99179.03;;;-1.71;42.75
70217;BME280;65567;55.684;37.570;2023-11-22T11:21:43;99166.19;;;-1.77;42.96
70217;BME280;65567;55.684;37.570;2023-11-22T11:24:09;99165.31;;;-1.66;43.33
70217;BME280;65567;55.684;37.570;2023-11-22T11:26:34;99163.59;;;-1.70;42.80
70217;BME280;65567;55.684;37.570;2023-11-22T11:29:00;99169.59;;;-1.60;43.01
70217;BME280;65567;55.684;37.570;2023-11-22T11:31:32;99168.72;;;-1.57;42.83
70217;BME280;65567;55.684;37.570;2023-11-22T11:34:05;99163.56;;;-1.60;43.22
70217;BME280;65567;55.684;37.570;2023-11-22T11:36:32;99169.56;;;-1.52;43.00
70217;BME280;65567;55.684;37.570;2023-11-22T11:39:00;99165.28;;;-1.58;43.10
70217;BME280;65567;55.684;37.570;2023-11-22T11:41:31;99167.84;;;-1.47;43.01
70217;BME280;65567;55.684;37.570;2023-11-22T11:44:01;99165.28;;;-1.47;43.18
70217;BME280;65567;55.684;37.570;2023-11-22T11:46:29;99167.00;;;-1.52;43.10
70217;BME280;65567;55.684;37.570;2023-11-22T11:48:58;99168.72;;;-1.57;43.02
70217;BME280;65567;55.684;37.570;2023-11-22T11:51:27;99164.44;;;-1.60;43.40
70217;BME280;65567;55.684;37.570;2023-11-22T11:53:56;99167.88;;;-1.73;43.89
70217;BME280;65567;55.684;37.570;2023-11-22T11:56:23;99173.03;;;-1.69;43.80
70217;BME280;65567;55.684;37.570;2023-11-22T11:58:51;99156.78;;;-1.80;43.56
70217;BME280;65567;55.684;37.570;2023-11-22T12:01:18;99160.22;;;-1.87;43.74
70217;BME280;65567;55.684;37.570;2023-11-22T12:03:48;99124.31;;;-2.24;44.31
70217;BME280;65567;55.684;37.570;2023-11-22T12:06:17;99163.66;;;-2.02;44.20
70217;BME280;65567;55.684;37.570;2023-11-22T12:08:46;99167.91;;;-1.96;44.04
70217;BME280;65567;55.684;37.570;2023-11-22T12:11:13;99157.66;;;-2.04;44.07
70217;BME280;65567;55.684;37.570;2023-11-22T12:13:43;99150.84;;;-2.14;43.83
70217;BME280;65567;55.684;37.570;2023-11-22T12:16:15;99180.75;;;-2.21;44.70
70217;BME280;65567;55.684;37.570;2023-11-22T12:18:46;99171.38;;;-2.30;44.73
70217;BME280;65567;55.684;37.570;2023-11-22T12:21:16;99186.75;;;-2.19;44.63
70217;BME280;65567;55.684;37.570;2023-11-22T12:23:45;99184.19;;;-2.07;44.08
70217;BME280;65567;55.684;37.570;2023-11-22T12:26:16;99192.72;;;-2.26;44.74
70217;BME280;65567;55.684;37.570;2023-11-22T12:28:46;99193.59;;;-2.17;44.36
70217;BME280;65567;55.684;37.570;2023-11-22T12:31:17;99193.59;;;-2.27;44.46
70217;BME280;65567;55.684;37.570;2023-11-22T12:33:45;99199.59;;;-2.30;44.90
70217;BME280;65567;55.684;37.570;2023-11-22T12:36:16;99206.44;;;-2.27;44.48
70217;BME280;65567;55.684;37.570;2023-11-22T12:38:42;99205.53;;;-2.45;45.33
70217;BME280;65567;55.684;37.570;2023-11-22T12:41:08;99209.81;;;-2.41;44.92
70217;BME280;65567;55.684;37.570;2023-11-22T12:43:34;99214.06;;;-2.63;45.53
70217;BME280;65567;55.684;37.570;2023-11-22T12:46:02;99208.09;;;-2.67;45.59
70217;BME280;65567;55.684;37.570;2023-11-22T12:48:28;99202.97;;;-2.53;45.04
70217;BME280;65567;55.684;37.570;2023-11-22T12:51:14;99205.50;;;-2.59;45.29
70217;BME280;65567;55.684;37.570;2023-11-22T12:53:50;99206.38;;;-2.55;45.43
70217;BME280;65567;55.684;37.570;2023-11-22T12:56:16;99219.22;;;-2.60;45.18
70217;BME280;65567;55.684;37.570;2023-11-22T12:58:41;99223.44;;;-2.70;45.52